< < Back
Terminal Aerodrome Forecast


Current Version              Previous Versions:   1  2  3  4  5  6  7  8  9  

Terminal Aerodrome Forecast

822
FTUS42 KJAX 281700
TAFSSI
TAF
KSSI 281721Z 2818/2918 14008KT P6SM SCT035
     FM290100 VRB04KT P6SM SKC
     FM291600 14008KT P6SM FEW035=



Latest METAR

300
SAUS70 KWBC 290100 RRA
MTRSSI
METAR KSSI 290053Z AUTO 11006KT 10SM CLR 27/21 A3000 RMK AO2 SLP159
T02670206 $


USA.gov is the U.S. government's official web portal to all federal, state and local government web resources and services.